Time;durP1;ratioP1;P1;durP2;ratioP2;P2;SDS_P1;SDS_P2;PMS_P1;PMS_P2;Temp;Humidity;BMP_temperature;BMP_pressure;BME280_temperature;BME280_humidity;BME280_pressure;Samples;Min_cycle;Max_cycle;Signal;HPM_P1;HPM_P2
2022/01/21 00:02:00;;;;;;;8.50;2.00;;;;;;;4.29;63.71;102053.50;5084863;28;20601;-65
2022/01/21 00:04:27;;;;;;;8.60;2.60;;;;;;;4.36;63.54;102052.28;5083955;28;20242;-65
2022/01/21 00:06:56;;;;;;;13.30;2.93;;;;;;;4.33;63.74;102057.66;5089908;28;20274;-65
2022/01/21 00:09:24;;;;;;;10.47;2.30;;;;;;;4.26;63.95;102048.38;5072732;28;20215;-65
2022/01/21 00:11:52;;;;;;;8.93;2.37;;;;;;;4.21;64.09;102047.75;5080730;28;20239;-66
2022/01/21 00:14:20;;;;;;;12.53;2.73;;;;;;;4.23;64.51;102048.50;5087794;28;20238;-65
2022/01/21 00:16:48;;;;;;;10.73;2.27;;;;;;;4.28;63.91;102046.53;5097772;28;20210;-65
2022/01/21 00:19:17;;;;;;;15.17;2.67;;;;;;;4.33;63.96;102053.28;5103792;28;20229;-65
2022/01/21 00:30:16;;;;;;;9.33;2.07;;;;;;;4.39;64.25;102070.53;5028535;28;20685;-65
2022/01/21 00:32:46;;;;;;;11.27;2.40;;;;;;;4.60;63.43;102064.28;5101931;28;20213;-66
2022/01/21 00:35:16;;;;;;;9.23;3.33;;;;;;;4.77;63.32;102059.09;5100357;28;20302;-65
2022/01/21 00:37:44;;;;;;;11.27;2.60;;;;;;;4.78;63.05;102065.19;5111121;28;20209;-65
2022/01/21 00:40:17;;;;;;;7.43;2.90;;;;;;;4.57;63.54;102064.44;5091938;28;20301;-65
2022/01/21 00:43:09;;;;;;;10.57;2.53;;;;;;;4.64;63.53;102073.75;5094415;28;20229;-65
2022/01/21 00:45:38;;;;;;;9.63;3.00;;;;;;;4.65;63.72;102070.19;5100032;28;20221;-65
2022/01/21 00:48:06;;;;;;;7.67;2.20;;;;;;;4.74;63.02;102069.78;5104448;28;20594;-65
2022/01/21 00:50:34;;;;;;;12.83;2.40;;;;;;;4.74;63.00;102068.91;5099829;28;20205;-65
2022/01/21 00:53:02;;;;;;;11.83;2.40;;;;;;;4.80;62.99;102066.00;5105141;28;20313;-65
2022/01/21 00:55:32;;;;;;;7.67;2.13;;;;;;;4.63;63.38;102064.16;5105806;28;20297;-65
2022/01/21 00:57:59;;;;;;;6.13;2.10;;;;;;;4.55;64.04;102068.91;5098664;28;20220;-65
2022/01/21 01:00:27;;;;;;;7.37;2.87;;;;;;;4.31;64.06;102070.03;5106898;28;20210;-65
2022/01/21 01:02:55;;;;;;;11.73;2.30;;;;;;;4.51;64.18;102072.59;5105532;28;20724;-65
2022/01/21 01:05:23;;;;;;;11.60;2.30;;;;;;;4.54;64.14;102072.47;5103381;28;20247;-65
2022/01/21 01:07:51;;;;;;;10.23;2.93;;;;;;;4.59;63.98;102083.59;5107887;28;20299;-65
2022/01/21 01:10:24;;;;;;;8.27;2.40;;;;;;;4.81;63.51;102080.84;5102319;27;20217;-65
2022/01/21 01:19:51;;;;;;;11.07;2.80;;;;;;;4.45;64.64;102088.66;5098581;28;20865;-65
2022/01/21 01:21:13;;;;;;;6.33;2.73;;;;;;;4.50;65.27;102102.41;5055572;27;20220;-65
2022/01/21 01:24:01;;;;;;;6.90;2.80;;;;;;;4.50;65.43;102102.41;5100199;27;20317;-65
2022/01/21 01:29:15;;;;;;;7.77;2.50;;;;;;;4.06;66.65;102102.63;5107190;28;20304;-65
2022/01/21 01:31:43;;;;;;;6.53;2.33;;;;;;;4.19;66.95;102110.81;5105164;28;20301;-65
2022/01/21 01:34:11;;;;;;;9.93;3.10;;;;;;;4.27;66.42;102097.34;5106437;27;20225;-65
2022/01/21 01:36:42;;;;;;;14.63;2.80;;;;;;;4.14;65.81;102090.00;5111397;28;20207;-65
2022/01/21 01:39:15;;;;;;;12.97;2.77;;;;;;;4.32;65.93;102095.34;5110283;28;20242;-65
2022/01/21 01:41:48;;;;;;;9.70;2.50;;;;;;;4.02;66.41;102102.84;5099990;28;20714;-65
2022/01/21 01:49:59;;;;;;;7.33;2.53;;;;;;;4.03;65.73;102089.66;5091046;28;20244;-65
2022/01/21 01:52:27;;;;;;;12.83;3.23;;;;;;;3.94;66.02;102084.78;5102843;28;20295;-65
2022/01/21 01:54:57;;;;;;;10.30;2.83;;;;;;;3.99;65.92;102090.69;5106795;28;20301;-64
2022/01/21 01:57:24;;;;;;;10.67;3.00;;;;;;;3.99;65.99;102085.44;5094714;28;20898;-65
2022/01/21 01:59:53;;;;;;;11.53;2.90;;;;;;;3.85;66.41;102082.56;5102797;27;20566;-66
2022/01/21 02:02:23;;;;;;;11.97;2.50;;;;;;;3.90;66.13;102080.59;5107298;27;20303;-65
2022/01/21 02:04:51;;;;;;;12.03;2.73;;;;;;;3.90;66.24;102085.84;5108260;27;20210;-65
2022/01/21 02:07:18;;;;;;;14.20;3.20;;;;;;;3.80;65.90;102084.50;5111408;27;20320;-65
2022/01/21 02:09:46;;;;;;;9.03;2.63;;;;;;;4.03;65.50;102091.41;5099450;28;20224;-65
2022/01/21 02:12:14;;;;;;;10.93;3.10;;;;;;;4.07;65.32;102087.72;5104345;27;20291;-65
2022/01/21 02:14:48;;;;;;;10.67;3.07;;;;;;;4.05;65.33;102089.56;5094803;28;20264;-65
2022/01/21 02:21:29;;;;;;;9.27;3.03;;;;;;;3.95;65.51;102089.13;5078463;28;20234;-66
2022/01/21 02:22:59;;;;;;;11.37;3.27;;;;;;;4.00;65.45;102087.13;5082102;28;20239;-65
2022/01/21 02:25:27;;;;;;;9.40;3.20;;;;;;;3.77;65.96;102090.78;5084294;28;20234;-65
2022/01/21 02:27:57;;;;;;;13.27;3.00;;;;;;;3.92;65.42;102089.25;5084857;28;20245;-65
2022/01/21 02:30:26;;;;;;;12.07;3.03;;;;;;;4.07;65.13;102088.56;5082196;28;20244;-65
2022/01/21 02:32:56;;;;;;;10.93;3.20;;;;;;;4.04;65.05;102091.34;5088394;28;20307;-66
2022/01/21 02:35:25;;;;;;;9.87;2.70;;;;;;;3.95;65.02;102089.13;5084500;28;20220;-65
2022/01/21 02:37:53;;;;;;;17.70;3.63;;;;;;;3.88;65.15;102079.78;5090459;28;20300;-65
2022/01/21 02:40:22;;;;;;;10.20;3.73;;;;;;;3.89;65.39;102091.13;5075925;28;20245;-65
2022/01/21 02:42:50;;;;;;;12.63;3.20;;;;;;;3.88;65.09;102087.66;5078479;28;20297;-65
2022/01/21 02:45:18;;;;;;;10.47;3.17;;;;;;;3.77;65.60;102089.91;5077624;28;20301;-65
2022/01/21 02:47:47;;;;;;;12.37;3.00;;;;;;;4.02;65.81;102090.56;5076577;28;20228;-65
2022/01/21 02:50:16;;;;;;;9.33;2.63;;;;;;;4.11;64.85;102098.03;5083001;28;20267;-66
2022/01/21 02:52:55;;;;;;;8.27;3.10;;;;;;;3.78;65.42;102107.38;5081834;28;20594;-66
2022/01/21 02:55:25;;;;;;;9.87;2.77;;;;;;;3.79;65.83;102120.41;5077997;28;20272;-65
2022/01/21 02:57:53;;;;;;;6.67;2.80;;;;;;;3.94;65.86;102126.78;5085473;28;20201;-66
2022/01/21 03:00:21;;;;;;;11.57;2.73;;;;;;;3.79;65.82;102125.66;5083705;28;20675;-65
2022/01/21 03:02:49;;;;;;;10.27;2.80;;;;;;;3.86;65.75;102125.41;5087408;28;20296;-65
2022/01/21 03:05:18;;;;;;;10.93;3.20;;;;;;;3.79;65.93;102124.78;5084995;28;20281;-65
2022/01/21 03:07:47;;;;;;;7.60;3.00;;;;;;;3.91;65.77;102134.78;5076458;28;20244;-65
2022/01/21 03:10:16;;;;;;;7.60;2.60;;;;;;;3.93;65.79;102119.84;5087258;28;20250;-65
2022/01/21 03:12:45;;;;;;;12.53;2.90;;;;;;;3.86;65.91;102125.41;5089255;28;20300;-65
2022/01/21 03:15:13;;;;;;;12.17;3.57;;;;;;;3.69;66.44;102123.50;5092503;28;20233;-65
2022/01/21 03:17:41;;;;;;;15.10;3.33;;;;;;;3.86;65.96;102117.53;5101263;27;20197;-66
2022/01/21 03:20:10;;;;;;;12.10;3.00;;;;;;;3.76;65.98;102124.94;5104878;28;20653;-65
2022/01/21 03:22:38;;;;;;;11.53;2.93;;;;;;;3.60;66.91;102116.00;5100184;27;20309;-64
2022/01/21 03:25:08;;;;;;;21.87;3.53;;;;;;;3.74;66.08;102113.66;5099454;28;20270;-65
2022/01/21 03:27:36;;;;;;;8.47;2.77;;;;;;;3.72;66.31;102112.84;5101903;28;20296;-65
2022/01/21 03:30:09;;;;;;;11.37;3.03;;;;;;;3.86;66.03;102121.00;5103898;28;20300;-65
2022/01/21 03:32:37;;;;;;;13.30;3.13;;;;;;;3.85;66.37;102121.94;5106515;27;20208;-64
2022/01/21 03:35:06;;;;;;;13.97;3.43;;;;;;;3.68;66.35;102127.03;5104569;28;20255;-64
2022/01/21 03:37:34;;;;;;;9.03;3.07;;;;;;;3.71;66.35;102124.25;5099573;27;20244;-64
2022/01/21 03:40:02;;;;;;;11.97;2.97;;;;;;;3.72;66.28;102123.34;5096291;28;20292;-64
2022/01/21 03:42:29;;;;;;;10.93;2.77;;;;;;;3.56;66.56;102124.91;5099323;28;20268;-64
2022/01/21 03:44:57;;;;;;;8.83;3.10;;;;;;;3.74;66.62;102132.03;5108560;27;20248;-64
2022/01/21 03:47:26;;;;;;;8.97;2.60;;;;;;;3.89;66.48;102143.63;5101648;28;20307;-65
2022/01/21 03:49:57;;;;;;;14.40;3.40;;;;;;;3.60;66.83;102145.72;5103136;27;20765;-65
2022/01/21 03:52:25;;;;;;;10.73;3.63;;;;;;;3.65;66.85;102153.38;5098860;28;20210;-65
2022/01/21 03:54:53;;;;;;;11.20;3.30;;;;;;;3.84;66.49;102151.72;5108991;27;20301;-65
2022/01/21 03:57:21;;;;;;;8.07;2.90;;;;;;;3.68;66.59;102145.41;5106497;27;20213;-65
2022/01/21 03:59:48;;;;;;;13.50;3.10;;;;;;;3.78;66.15;102160.69;5108232;28;20745;-65
2022/01/21 04:02:16;;;;;;;11.03;2.80;;;;;;;3.73;66.44;102156.56;5099404;27;20213;-65
2022/01/21 04:04:45;;;;;;;9.27;3.10;;;;;;;3.75;66.56;102158.19;5113815;27;20201;-65
2022/01/21 04:07:13;;;;;;;7.77;2.97;;;;;;;3.83;66.11;102157.88;5108104;28;20217;-65
2022/01/21 04:09:41;;;;;;;10.07;2.87;;;;;;;3.96;65.72;102156.44;5101040;28;20226;-65
2022/01/21 04:12:10;;;;;;;13.27;3.27;;;;;;;3.89;65.69;102136.63;5091796;28;20213;-65
2022/01/21 04:14:38;;;;;;;12.90;2.83;;;;;;;4.01;65.33;102154.47;5106107;28;20640;-65
2022/01/21 04:17:06;;;;;;;8.50;3.30;;;;;;;4.05;65.24;102140.28;5101580;27;20301;-65
2022/01/21 04:19:34;;;;;;;9.13;2.90;;;;;;;3.94;65.60;102145.16;5097913;28;20200;-65
2022/01/21 04:22:03;;;;;;;9.67;3.30;;;;;;;3.94;65.60;102141.69;5093559;28;20243;-65
2022/01/21 04:24:31;;;;;;;9.87;3.00;;;;;;;3.87;65.65;102146.31;5103287;28;20214;-64
2022/01/21 04:26:59;;;;;;;6.93;3.30;;;;;;;4.11;65.30;102141.81;5099547;27;20332;-64
2022/01/21 04:29:27;;;;;;;11.43;2.60;;;;;;;3.88;65.39;102137.53;5105370;28;20306;-65
2022/01/21 04:31:54;;;;;;;16.57;3.20;;;;;;;4.04;64.85;102146.47;5108544;28;20217;-65
2022/01/21 04:34:22;;;;;;;15.30;4.20;;;;;;;3.83;65.93;102146.53;5106029;28;20274;-65
2022/01/21 04:36:50;;;;;;;8.63;3.23;;;;;;;3.71;65.94;102153.97;5108954;27;20899;-64
2022/01/21 04:39:25;;;;;;;11.17;4.03;;;;;;;3.88;66.09;102155.03;5101720;28;20317;-64
2022/01/21 04:47:40;;;;;;;9.13;3.00;;;;;;;3.90;65.06;102140.94;5093124;28;20209;-65
2022/01/21 04:50:12;;;;;;;10.43;3.33;;;;;;;4.02;64.81;102142.22;5089385;28;20229;-65
2022/01/21 04:52:41;;;;;;;12.97;3.17;;;;;;;3.86;65.01;102155.13;5101171;28;20303;-66
2022/01/21 04:55:11;;;;;;;11.33;2.60;;;;;;;3.72;65.55;102155.69;5098714;28;20309;-66
2022/01/21 04:57:38;;;;;;;11.90;3.00;;;;;;;3.86;65.23;102163.00;5095797;28;20223;-66
2022/01/21 05:00:08;;;;;;;14.20;3.63;;;;;;;4.04;64.76;102177.13;5102570;28;20289;-65
2022/01/21 05:02:36;;;;;;;8.63;3.27;;;;;;;3.91;64.83;102181.16;5103927;28;20877;-65
2022/01/21 05:05:06;;;;;;;9.00;3.10;;;;;;;3.98;64.85;102172.13;5097374;28;20291;-65
2022/01/21 05:07:38;;;;;;;8.73;3.23;;;;;;;4.00;64.80;102176.41;5098037;28;20587;-65
2022/01/21 05:10:08;;;;;;;7.00;2.93;;;;;;;3.96;65.26;102184.47;5102302;28;20263;-66
2022/01/21 05:12:37;;;;;;;7.50;3.13;;;;;;;3.83;65.72;102178.88;5095982;28;20679;-65
2022/01/21 05:15:17;;;;;;;8.03;2.77;;;;;;;3.86;65.78;102184.00;5103599;28;20262;-66
2022/01/21 05:17:49;;;;;;;12.63;3.80;;;;;;;3.81;65.66;102185.94;5098764;28;20244;-66
2022/01/21 05:20:18;;;;;;;9.73;2.87;;;;;;;3.76;65.81;102187.91;5098880;28;20367;-66
2022/01/21 05:22:46;;;;;;;9.93;3.30;;;;;;;3.85;65.90;102182.28;5098085;28;20240;-65
2022/01/21 05:25:18;;;;;;;8.23;3.53;;;;;;;4.14;65.01;102176.66;5107136;28;20688;-66
2022/01/21 05:27:53;;;;;;;11.70;3.03;;;;;;;4.16;64.75;102166.09;5102826;28;20264;-66
2022/01/21 05:30:21;;;;;;;9.97;3.43;;;;;;;4.07;65.22;102164.72;5102463;28;20298;-66
2022/01/21 05:32:49;;;;;;;9.07;3.77;;;;;;;3.83;65.65;102173.63;5099961;28;20230;-64
2022/01/21 05:35:17;;;;;;;12.00;4.27;;;;;;;4.06;65.07;102164.78;5102491;28;20671;-64
2022/01/21 05:37:44;;;;;;;13.03;3.87;;;;;;;3.89;65.75;102173.34;5102539;28;20220;-65
2022/01/21 05:40:15;;;;;;;11.50;3.07;;;;;;;3.91;65.59;102176.78;5093352;28;20289;-65
2022/01/21 05:42:43;;;;;;;9.43;3.30;;;;;;;4.08;65.33;102163.78;5108591;28;20266;-65
2022/01/21 05:47:58;;;;;;;12.70;3.60;;;;;;;4.40;63.94;102174.66;5097370;28;20263;-64
2022/01/21 05:50:25;;;;;;;8.87;3.27;;;;;;;4.33;64.14;102175.84;5097672;28;20232;-65
2022/01/21 05:52:55;;;;;;;17.07;3.90;;;;;;;4.53;63.58;102171.44;5102969;28;20233;-65
2022/01/21 05:55:23;;;;;;;15.43;4.03;;;;;;;4.73;63.26;102191.59;5099243;28;20268;-65
2022/01/21 05:57:51;;;;;;;12.33;3.47;;;;;;;4.77;63.21;102194.91;5108817;28;20206;-65
2022/01/21 06:00:20;;;;;;;11.17;3.40;;;;;;;4.85;62.97;102200.66;5102832;27;20209;-65
2022/01/21 06:02:48;;;;;;;13.13;3.33;;;;;;;4.84;62.79;102191.94;5096793;27;20218;-64
2022/01/21 06:05:17;;;;;;;12.23;3.00;;;;;;;4.60;63.63;102187.78;5096115;27;20213;-64
2022/01/21 06:07:44;;;;;;;12.93;3.97;;;;;;;4.76;63.13;102199.31;5103645;28;20300;-65
2022/01/21 06:10:12;;;;;;;11.67;4.17;;;;;;;4.60;64.15;102203.56;5099800;28;20309;-65
2022/01/21 06:12:40;;;;;;;10.50;3.73;;;;;;;4.37;64.99;102201.09;5099306;28;20216;-65
2022/01/21 06:15:08;;;;;;;10.57;4.07;;;;;;;4.69;63.86;102211.03;5086362;28;20328;-64
2022/01/21 06:17:38;;;;;;;10.20;3.73;;;;;;;4.71;63.91;102217.06;5085105;28;20206;-65
2022/01/21 06:20:07;;;;;;;11.73;4.20;;;;;;;4.71;63.65;102219.69;5087806;28;20296;-66
2022/01/21 06:22:34;;;;;;;15.70;3.90;;;;;;;4.84;63.34;102228.72;5081213;28;20221;-66
2022/01/21 06:25:02;;;;;;;13.17;3.73;;;;;;;5.01;62.82;102224.53;5089737;28;20229;-65
2022/01/21 06:27:32;;;;;;;11.47;4.13;;;;;;;4.72;63.34;102225.81;5077603;28;20331;-64
2022/01/21 06:29:59;;;;;;;14.73;4.63;;;;;;;4.95;63.01;102216.88;5080086;28;20233;-65
2022/01/21 06:32:27;;;;;;;16.87;4.60;;;;;;;4.91;62.55;102218.81;5093766;28;20200;-65
2022/01/21 06:35:01;;;;;;;12.03;4.50;;;;;;;4.43;63.94;102227.94;5085705;28;20232;-65
2022/01/21 06:37:30;;;;;;;12.67;4.27;;;;;;;4.58;63.87;102226.41;5082638;28;20672;-65
2022/01/21 06:39:58;;;;;;;13.30;4.63;;;;;;;4.71;63.59;102235.47;5076719;28;20203;-65
2022/01/21 06:42:27;;;;;;;13.80;4.60;;;;;;;5.00;62.90;102231.56;5075921;28;20202;-64
2022/01/21 06:44:55;;;;;;;14.47;4.40;;;;;;;5.15;62.48;102237.88;5085278;28;20254;-66
2022/01/21 06:47:23;;;;;;;14.47;4.60;;;;;;;4.80;63.35;102237.69;5078558;28;20322;-65
2022/01/21 06:49:51;;;;;;;15.63;4.70;;;;;;;4.83;63.39;102234.94;5079652;28;20288;-65
2022/01/21 06:52:21;;;;;;;12.23;4.03;;;;;;;5.15;62.43;102233.47;5088596;28;20219;-65
2022/01/21 06:54:49;;;;;;;16.20;4.30;;;;;;;5.11;62.58;102236.28;5084694;28;20221;-65
2022/01/21 06:57:17;;;;;;;15.10;4.37;;;;;;;5.00;62.83;102234.19;5075456;28;20842;-65
2022/01/21 06:59:44;;;;;;;14.80;4.40;;;;;;;4.76;63.70;102230.00;5085922;28;20213;-65
2022/01/21 07:02:12;;;;;;;22.07;4.50;;;;;;;4.46;64.60;102234.84;5080387;28;20226;-66
2022/01/21 07:04:40;;;;;;;14.00;4.50;;;;;;;4.56;64.81;102237.94;5080657;28;20230;-66
2022/01/21 07:07:08;;;;;;;15.47;4.47;;;;;;;4.35;65.44;102247.56;5089168;28;20242;-65
2022/01/21 07:09:37;;;;;;;14.03;4.23;;;;;;;4.04;66.29;102248.88;5079303;28;20479;-65
2022/01/21 07:12:06;;;;;;;13.50;4.27;;;;;;;4.25;66.29;102248.88;5085078;28;20219;-66
2022/01/21 07:14:34;;;;;;;17.43;5.03;;;;;;;3.99;66.56;102237.69;5099211;28;20352;-65
2022/01/21 07:17:02;;;;;;;15.47;4.30;;;;;;;4.36;65.99;102231.75;5100824;28;20227;-66
2022/01/21 07:19:30;;;;;;;10.10;4.10;;;;;;;4.15;66.29;102223.00;5104598;27;20851;-66
2022/01/21 07:21:58;;;;;;;13.75;4.30;;;;;;;4.37;65.86;102232.59;5107707;28;20418;-63
2022/01/21 07:24:26;;;;;;;14.37;4.43;;;;;;;4.51;64.84;102232.84;5102634;27;20210;-62
2022/01/21 07:26:55;;;;;;;15.80;4.17;;;;;;;4.81;64.47;102238.56;5097134;27;20940;-62
2022/01/21 07:29:24;;;;;;;12.20;5.20;;;;;;;5.02;63.89;102237.56;5104770;28;20328;-64
2022/01/21 07:31:54;;;;;;;13.13;4.57;;;;;;;5.15;63.19;102238.72;5095064;28;20297;-63
2022/01/21 07:34:23;;;;;;;14.90;4.37;;;;;;;5.04;63.57;102234.88;5106732;28;20234;-62
2022/01/21 07:36:52;;;;;;;18.77;5.10;;;;;;;4.92;64.09;102234.50;5097214;27;20297;-63
2022/01/21 07:39:37;;;;;;;14.90;4.50;;;;;;;5.14;63.64;102229.13;5100152;28;20290;-62
2022/01/21 07:42:07;;;;;;;13.23;4.10;;;;;;;5.16;63.45;102229.06;5098527;28;20251;-62
2022/01/21 07:44:35;;;;;;;13.87;3.90;;;;;;;5.17;63.88;102241.28;5107479;28;20252;-63
2022/01/21 07:47:03;;;;;;;9.43;3.30;;;;;;;5.19;63.49;102244.72;5097787;27;20229;-62
2022/01/21 07:49:30;;;;;;;11.20;3.60;;;;;;;5.07;63.71;102242.63;5097387;28;20639;-62
2022/01/21 07:51:59;;;;;;;13.67;3.20;;;;;;;5.11;63.77;102257.34;5101124;28;20635;-63
2022/01/21 07:54:26;;;;;;;17.23;3.93;;;;;;;5.21;63.41;102258.63;5106518;27;20212;-62
2022/01/21 07:56:54;;;;;;;20.67;3.60;;;;;;;5.24;63.35;102261.13;5103561;28;20238;-62
2022/01/21 07:59:23;;;;;;;15.30;4.07;;;;;;;5.44;63.13;102260.22;5105532;27;20241;-63
2022/01/21 08:01:51;;;;;;;14.30;3.90;;;;;;;5.46;62.92;102259.19;5101029;27;20281;-61
2022/01/21 08:04:19;;;;;;;10.03;3.43;;;;;;;5.41;63.17;102271.72;5099036;28;20206;-60
2022/01/21 08:06:46;;;;;;;15.67;4.50;;;;;;;5.50;63.32;102265.19;5106973;28;20218;-62
2022/01/21 08:09:14;;;;;;;9.73;4.00;;;;;;;5.42;63.57;102273.44;5100994;28;20210;-61
2022/01/21 08:11:42;;;;;;;12.07;3.83;;;;;;;5.48;62.97;102275.78;5098364;27;20226;-61
2022/01/21 08:14:10;;;;;;;14.63;3.47;;;;;;;5.51;62.96;102278.28;5100624;27;20258;-60
2022/01/21 08:16:42;;;;;;;13.67;3.67;;;;;;;5.50;63.20;102281.81;5100682;27;20263;-61
2022/01/21 08:19:10;;;;;;;11.47;3.40;;;;;;;5.55;63.23;102282.44;5096976;27;21810;-61
2022/01/21 08:21:38;;;;;;;20.10;3.20;;;;;;;5.56;62.87;102292.06;5097694;27;20202;-61
2022/01/21 08:24:07;;;;;;;12.77;3.83;;;;;;;5.61;62.71;102279.53;5107594;28;20248;-61
2022/01/21 08:26:36;;;;;;;12.63;3.13;;;;;;;5.54;62.99;102272.84;5106579;28;20598;-63
2022/01/21 08:29:06;;;;;;;15.27;3.87;;;;;;;5.45;62.67;102275.94;5101635;28;20222;-63
2022/01/21 08:31:34;;;;;;;10.57;3.70;;;;;;;5.61;62.76;102269.03;5098596;28;20234;-63
2022/01/21 08:34:03;;;;;;;9.33;3.00;;;;;;;5.75;62.36;102259.59;5101954;28;20869;-63
2022/01/21 08:36:31;;;;;;;12.43;3.03;;;;;;;5.65;62.49;102265.31;5100581;28;20227;-64
2022/01/21 08:38:59;;;;;;;9.00;2.73;;;;;;;5.67;62.52;102263.44;5102970;28;20297;-71
2022/01/21 08:41:26;;;;;;;15.27;4.17;;;;;;;5.65;62.65;102265.31;5097068;28;20237;-60
2022/01/21 08:43:54;;;;;;;10.37;3.00;;;;;;;5.65;62.65;102275.81;5098576;28;20229;-61
2022/01/21 08:46:22;;;;;;;10.40;3.30;;;;;;;5.54;63.52;102275.47;5097748;28;20645;-62
2022/01/21 08:48:51;;;;;;;14.23;3.20;;;;;;;5.60;63.56;102283.09;5103259;28;20568;-57
2022/01/21 08:51:25;;;;;;;12.37;2.57;;;;;;;5.78;62.61;102296.31;5104458;28;20309;-61
2022/01/21 08:53:53;;;;;;;14.90;3.00;;;;;;;5.77;62.34;102308.63;5100247;28;20300;-62
2022/01/21 08:56:21;;;;;;;10.27;3.30;;;;;;;5.86;62.70;102295.03;5101066;28;20335;-61
2022/01/21 08:58:50;;;;;;;12.20;3.97;;;;;;;5.81;62.81;102302.28;5095223;28;20770;-61
2022/01/21 09:01:18;;;;;;;9.03;2.40;;;;;;;5.55;63.67;102292.97;5106529;28;20298;-60
2022/01/21 09:03:46;;;;;;;13.33;2.77;;;;;;;5.59;63.40;102297.19;5096086;28;20235;-63
2022/01/21 09:06:18;;;;;;;14.37;3.43;;;;;;;5.88;62.83;102310.78;5107194;28;20257;-61
2022/01/21 09:08:47;;;;;;;10.03;2.80;;;;;;;5.92;62.54;102307.06;5102565;28;20293;-61
2022/01/21 09:11:15;;;;;;;12.33;2.47;;;;;;;5.91;62.56;102302.72;5098400;28;20757;-62
2022/01/21 09:13:43;;;;;;;14.13;2.67;;;;;;;5.96;62.42;102306.84;5107341;28;20325;-62
2022/01/21 09:16:11;;;;;;;10.73;2.37;;;;;;;5.84;62.55;102317.94;5098435;28;20852;-62
2022/01/21 09:18:47;;;;;;;7.93;2.10;;;;;;;5.83;62.62;102310.09;5100789;28;20226;-62
2022/01/21 09:21:34;;;;;;;26.40;2.90;;;;;;;6.07;62.32;102308.94;5102417;28;20206;-61
2022/01/21 09:24:05;;;;;;;9.73;2.23;;;;;;;6.17;62.17;102320.75;5096778;28;20234;-61
2022/01/21 09:26:33;;;;;;;11.37;2.77;;;;;;;6.22;61.56;102316.13;5105544;28;20280;-62
2022/01/21 09:29:03;;;;;;;12.53;2.70;;;;;;;6.62;60.74;102316.75;5100319;28;20206;-61
2022/01/21 09:31:31;;;;;;;9.47;2.40;;;;;;;6.80;60.10;102321.94;5100361;27;20423;-61
2022/01/21 09:34:19;;;;;;;9.43;2.43;;;;;;;6.79;60.11;102335.19;5100590;27;20532;-61
2022/01/21 09:36:47;;;;;;;10.27;2.47;;;;;;;6.49;60.53;102326.22;5103977;27;20227;-60
2022/01/21 09:39:16;;;;;;;12.37;3.13;;;;;;;6.66;60.37;102323.59;5115045;27;20238;-61
2022/01/21 09:41:44;;;;;;;8.97;2.20;;;;;;;6.72;60.37;102323.25;5106789;27;20219;-61
2022/01/21 09:44:13;;;;;;;9.83;2.30;;;;;;;6.76;60.06;102328.31;5102758;27;20628;-61
2022/01/21 09:46:46;;;;;;;9.70;2.40;;;;;;;6.80;59.91;102321.09;5099088;28;20210;-61
2022/01/21 09:52:04;;;;;;;12.43;2.30;;;;;;;6.77;59.83;102327.38;5104561;28;20301;-59
2022/01/21 09:54:43;;;;;;;13.83;3.43;;;;;;;6.97;59.77;102321.06;5104121;27;20207;-60
2022/01/21 09:57:12;;;;;;;12.40;2.80;;;;;;;7.17;59.14;102314.75;5102061;27;20247;-61
2022/01/21 09:59:40;;;;;;;7.83;2.30;;;;;;;7.19;58.36;102318.16;5108768;28;20212;-60
2022/01/21 10:02:09;;;;;;;13.23;3.13;;;;;;;7.10;58.46;102318.66;5106220;27;20250;-60
2022/01/21 10:04:42;;;;;;;10.00;2.60;;;;;;;7.13;58.51;102321.09;5104153;28;20242;-60
2022/01/21 10:07:15;;;;;;;10.03;2.83;;;;;;;7.25;58.37;102330.16;5111454;27;20235;-60
2022/01/21 10:09:46;;;;;;;11.70;2.17;;;;;;;7.33;58.58;102330.59;5105041;27;20244;-59
2022/01/21 10:12:14;;;;;;;14.17;3.17;;;;;;;7.49;58.32;102316.50;5105608;28;20293;-60
2022/01/21 10:14:43;;;;;;;11.73;2.10;;;;;;;7.84;56.79;102317.19;5093795;28;20245;-60
2022/01/21 10:17:13;;;;;;;11.83;2.50;;;;;;;7.90;56.91;102318.66;5075134;28;20215;-60
2022/01/21 10:19:45;;;;;;;11.40;3.30;;;;;;;8.04;56.26;102317.88;5083481;28;20211;-60
2022/01/21 10:22:16;;;;;;;10.20;2.73;;;;;;;8.16;56.02;102311.91;5078721;28;20207;-61
2022/01/21 10:24:54;;;;;;;11.20;2.87;;;;;;;8.76;54.48;102318.06;5078878;28;20268;-60
2022/01/21 10:27:24;;;;;;;10.00;2.93;;;;;;;10.14;51.12;102306.66;5078478;28;20660;-60
2022/01/21 10:29:52;;;;;;;10.57;2.57;;;;;;;8.99;53.20;102309.56;5081713;28;20204;-60
2022/01/21 10:32:34;;;;;;;14.17;2.10;;;;;;;9.87;51.06;102312.91;5087968;28;20236;-61
2022/01/21 10:35:26;;;;;;;11.80;2.03;;;;;;;10.07;50.65;102308.00;5080441;28;20216;-60
2022/01/21 10:37:57;;;;;;;7.93;1.93;;;;;;;10.34;49.84;102315.13;5082351;28;20215;-60
2022/01/21 10:40:34;;;;;;;11.37;2.73;;;;;;;9.36;51.94;102313.47;5076227;28;20719;-61
2022/01/21 10:43:12;;;;;;;8.93;2.17;;;;;;;8.63;54.18;102317.91;5084646;28;20234;-60
2022/01/21 10:45:51;;;;;;;10.37;2.33;;;;;;;8.12;55.44;102315.63;5079612;28;20266;-60
2022/01/21 10:48:18;;;;;;;10.27;1.80;;;;;;;8.34;55.33;102304.72;5073670;28;20664;-60
2022/01/21 10:50:46;;;;;;;8.97;2.47;;;;;;;8.32;55.60;102318.03;5087449;28;20295;-60
2022/01/21 10:53:29;;;;;;;9.60;2.00;;;;;;;10.71;50.69;102311.72;5084776;28;20253;-60
2022/01/21 10:56:09;;;;;;;8.53;2.40;;;;;;;11.06;47.97;102305.78;5081926;28;20759;-61
2022/01/21 10:58:40;;;;;;;8.77;2.90;;;;;;;9.60;51.54;102303.13;5075586;28;20533;-61
2022/01/21 11:01:16;;;;;;;6.47;1.77;;;;;;;8.67;53.62;102305.38;5073797;28;20215;-62
2022/01/21 11:04:03;;;;;;;10.83;2.63;;;;;;;8.10;55.51;102309.56;5087281;28;20219;-62
2022/01/21 11:06:39;;;;;;;7.37;2.10;;;;;;;7.82;55.96;102297.97;5092772;28;20213;-62
2022/01/21 11:09:15;;;;;;;12.00;2.80;;;;;;;7.75;56.81;102301.00;5079643;28;20221;-60
2022/01/21 11:11:45;;;;;;;8.97;2.20;;;;;;;7.75;57.32;102295.72;5082334;28;20236;-62
2022/01/21 11:14:15;;;;;;;11.30;2.00;;;;;;;7.79;57.31;102297.28;5082500;28;20359;-60
2022/01/21 11:16:45;;;;;;;14.93;2.27;;;;;;;8.04;57.24;102288.81;5075938;28;20589;-62
2022/01/21 11:19:35;;;;;;;6.97;1.90;;;;;;;8.61;55.69;102290.75;5070741;28;20214;-64
2022/01/21 11:22:05;;;;;;;14.00;1.67;;;;;;;8.59;54.47;102284.69;5088948;28;20203;-62
2022/01/21 11:24:33;;;;;;;4.17;1.33;;;;;;;8.55;54.77;102288.44;5074054;28;20216;-60
2022/01/21 11:27:20;;;;;;;9.07;1.87;;;;;;;9.77;52.00;102280.84;5082002;28;20238;-61
2022/01/21 11:29:49;;;;;;;9.17;1.93;;;;;;;10.45;50.08;102294.06;5081382;28;20211;-61
2022/01/21 11:32:17;;;;;;;9.20;1.80;;;;;;;10.88;48.62;102282.22;5084378;28;20234;-61
2022/01/21 11:34:45;;;;;;;10.03;2.43;;;;;;;10.45;50.04;102284.28;5073645;28;20272;-62
2022/01/21 11:37:13;;;;;;;9.13;2.80;;;;;;;10.07;50.83;102288.59;5087726;28;20671;-59
2022/01/21 11:39:42;;;;;;;10.40;2.17;;;;;;;9.79;51.43;102277.16;5086055;28;20302;-61
2022/01/21 11:42:09;;;;;;;6.00;1.53;;;;;;;9.27;52.38;102266.38;5073554;28;20318;-61
2022/01/21 11:44:41;;;;;;;4.63;1.40;;;;;;;9.32;52.40;102264.28;5084637;28;20656;-60
2022/01/21 11:47:28;;;;;;;7.53;2.13;;;;;;;9.41;52.21;102269.00;5083616;28;20745;-62
2022/01/21 11:49:59;;;;;;;7.10;1.77;;;;;;;9.86;51.50;102264.34;5075681;28;20198;-62
2022/01/21 11:52:27;;;;;;;9.33;2.03;;;;;;;9.36;52.38;102257.84;5087075;28;20281;-61
2022/01/21 11:54:55;;;;;;;6.53;2.33;;;;;;;8.99;53.16;102266.38;5081312;28;20408;-61
2022/01/21 11:57:31;;;;;;;6.13;1.50;;;;;;;8.87;53.64;102268.00;5077778;28;20782;-60
2022/01/21 12:00:06;;;;;;;6.60;1.50;;;;;;;8.84;54.13;102268.19;5083678;28;20214;-60
2022/01/21 12:02:35;;;;;;;6.50;1.53;;;;;;;8.83;54.86;102252.41;5085506;28;20737;-61
2022/01/21 12:05:06;;;;;;;6.10;1.60;;;;;;;8.94;53.83;102250.81;5085975;28;20289;-60
2022/01/21 12:07:54;;;;;;;7.07;1.50;;;;;;;9.08;52.84;102252.59;5073017;28;20245;-62
2022/01/21 12:10:36;;;;;;;6.10;1.63;;;;;;;9.52;51.74;102248.94;5081081;28;20305;-62
2022/01/21 12:13:14;;;;;;;5.67;1.60;;;;;;;9.42;51.57;102254.81;5076043;28;20229;-63
2022/01/21 12:16:07;;;;;;;5.50;1.23;;;;;;;10.04;50.57;102252.53;5097451;27;20218;-62
2022/01/21 12:19:10;;;;;;;7.37;1.40;;;;;;;10.26;49.43;102245.84;5092825;28;20217;-60